sensor_id;sensor_type;location;lat;lon;timestamp;P1;durP1;ratioP1;P2;durP2;ratioP2
11279;SDS011;5696;50.928;6.960;2022-08-19T05:03:35;30.10;;;27.15;;
11279;SDS011;5696;50.928;6.960;2022-08-19T05:06:09;33.20;;;28.08;;
11279;SDS011;5696;50.928;6.960;2022-08-19T05:08:37;30.05;;;27.02;;
11279;SDS011;5696;50.928;6.960;2022-08-19T05:11:11;27.58;;;24.45;;
11279;SDS011;5696;50.928;6.960;2022-08-19T05:13:51;27.45;;;24.35;;
11279;SDS011;5696;50.928;6.960;2022-08-19T05:16:19;19.60;;;17.65;;
11279;SDS011;5696;50.928;6.960;2022-08-19T05:18:46;28.05;;;23.10;;
11279;SDS011;5696;50.928;6.960;2022-08-19T05:21:31;27.00;;;24.10;;
11279;SDS011;5696;50.928;6.960;2022-08-19T05:24:16;29.45;;;26.30;;
11279;SDS011;5696;50.928;6.960;2022-08-19T05:26:45;30.25;;;27.23;;
11279;SDS011;5696;50.928;6.960;2022-08-19T05:29:13;30.98;;;27.92;;
11279;SDS011;5696;50.928;6.960;2022-08-19T05:31:43;32.42;;;28.98;;
11279;SDS011;5696;50.928;6.960;2022-08-19T05:34:09;32.85;;;29.50;;
11279;SDS011;5696;50.928;6.960;2022-08-19T05:36:36;32.13;;;28.90;;
11279;SDS011;5696;50.928;6.960;2022-08-19T05:39:04;32.47;;;29.05;;
11279;SDS011;5696;50.928;6.960;2022-08-19T05:41:31;30.67;;;27.63;;
11279;SDS011;5696;50.928;6.960;2022-08-19T05:43:58;30.75;;;27.50;;
11279;SDS011;5696;50.928;6.960;2022-08-19T05:46:26;31.55;;;28.42;;
11279;SDS011;5696;50.928;6.960;2022-08-19T05:48:52;33.75;;;30.05;;
11279;SDS011;5696;50.928;6.960;2022-08-19T05:51:21;31.58;;;28.50;;
11279;SDS011;5696;50.928;6.960;2022-08-19T05:53:48;31.60;;;28.33;;
11279;SDS011;5696;50.928;6.960;2022-08-19T05:56:15;31.73;;;28.45;;
11279;SDS011;5696;50.928;6.960;2022-08-19T05:58:42;38.53;;;34.45;;
11279;SDS011;5696;50.928;6.960;2022-08-19T06:01:14;31.48;;;28.17;;
11279;SDS011;5696;50.928;6.960;2022-08-19T06:03:42;29.98;;;26.98;;
11279;SDS011;5696;50.928;6.960;2022-08-19T06:06:08;29.65;;;26.70;;
11279;SDS011;5696;50.928;6.960;2022-08-19T06:08:36;28.95;;;25.92;;
11279;SDS011;5696;50.928;6.960;2022-08-19T06:13:49;29.30;;;26.40;;
11279;SDS011;5696;50.928;6.960;2022-08-19T06:16:18;27.95;;;24.98;;
11279;SDS011;5696;50.928;6.960;2022-08-19T06:18:48;28.13;;;25.33;;
11279;SDS011;5696;50.928;6.960;2022-08-19T06:21:16;26.98;;;24.27;;
11279;SDS011;5696;50.928;6.960;2022-08-19T06:23:44;28.38;;;25.33;;
11279;SDS011;5696;50.928;6.960;2022-08-19T06:26:14;27.52;;;24.92;;
11279;SDS011;5696;50.928;6.960;2022-08-19T06:28:40;26.15;;;23.50;;
11279;SDS011;5696;50.928;6.960;2022-08-19T06:31:11;28.25;;;25.10;;
11279;SDS011;5696;50.928;6.960;2022-08-19T06:33:41;27.65;;;24.92;;
11279;SDS011;5696;50.928;6.960;2022-08-19T06:36:15;28.08;;;25.38;;
11279;SDS011;5696;50.928;6.960;2022-08-19T06:38:42;27.10;;;24.05;;
11279;SDS011;5696;50.928;6.960;2022-08-19T06:41:07;27.90;;;24.92;;
11279;SDS011;5696;50.928;6.960;2022-08-19T06:43:34;27.55;;;24.83;;
11279;SDS011;5696;50.928;6.960;2022-08-19T06:46:01;28.90;;;26.08;;
11279;SDS011;5696;50.928;6.960;2022-08-19T06:48:29;27.15;;;24.60;;
11279;SDS011;5696;50.928;6.960;2022-08-19T06:50:55;29.35;;;26.45;;
11279;SDS011;5696;50.928;6.960;2022-08-19T06:53:21;25.20;;;22.73;;
11279;SDS011;5696;50.928;6.960;2022-08-19T06:55:47;26.50;;;23.90;;
11279;SDS011;5696;50.928;6.960;2022-08-19T06:58:12;32.65;;;24.58;;
11279;SDS011;5696;50.928;6.960;2022-08-19T07:00:39;24.80;;;22.40;;
11279;SDS011;5696;50.928;6.960;2022-08-19T07:03:04;25.80;;;23.35;;
11279;SDS011;5696;50.928;6.960;2022-08-19T07:05:30;25.00;;;22.60;;
11279;SDS011;5696;50.928;6.960;2022-08-19T07:07:56;25.55;;;22.95;;
11279;SDS011;5696;50.928;6.960;2022-08-19T07:10:22;25.23;;;22.73;;
11279;SDS011;5696;50.928;6.960;2022-08-19T07:12:48;25.17;;;22.70;;
11279;SDS011;5696;50.928;6.960;2022-08-19T07:15:15;24.90;;;22.50;;
11279;SDS011;5696;50.928;6.960;2022-08-19T07:17:41;27.77;;;24.88;;
11279;SDS011;5696;50.928;6.960;2022-08-19T07:20:08;27.35;;;24.50;;
11279;SDS011;5696;50.928;6.960;2022-08-19T07:22:36;26.13;;;23.55;;
11279;SDS011;5696;50.928;6.960;2022-08-19T07:25:02;30.65;;;23.00;;
11279;SDS011;5696;50.928;6.960;2022-08-19T07:27:28;24.48;;;21.90;;
11279;SDS011;5696;50.928;6.960;2022-08-19T07:29:54;22.90;;;20.50;;
11279;SDS011;5696;50.928;6.960;2022-08-19T07:32:20;23.08;;;20.75;;
11279;SDS011;5696;50.928;6.960;2022-08-19T07:34:46;21.27;;;19.02;;
11279;SDS011;5696;50.928;6.960;2022-08-19T07:37:11;20.48;;;18.38;;
11279;SDS011;5696;50.928;6.960;2022-08-19T07:39:37;22.52;;;20.23;;
11279;SDS011;5696;50.928;6.960;2022-08-19T07:42:07;20.27;;;18.27;;
11279;SDS011;5696;50.928;6.960;2022-08-19T07:44:35;24.02;;;20.95;;
11279;SDS011;5696;50.928;6.960;2022-08-19T07:47:02;23.95;;;21.50;;
11279;SDS011;5696;50.928;6.960;2022-08-19T07:49:28;25.95;;;23.08;;
11279;SDS011;5696;50.928;6.960;2022-08-19T07:52:03;25.05;;;22.45;;
11279;SDS011;5696;50.928;6.960;2022-08-19T07:54:31;27.88;;;23.00;;
11279;SDS011;5696;50.928;6.960;2022-08-19T07:57:00;27.25;;;24.48;;
11279;SDS011;5696;50.928;6.960;2022-08-19T07:59:27;26.52;;;23.17;;
11279;SDS011;5696;50.928;6.960;2022-08-19T08:01:54;29.88;;;26.40;;
11279;SDS011;5696;50.928;6.960;2022-08-19T08:04:20;27.00;;;24.15;;
11279;SDS011;5696;50.928;6.960;2022-08-19T08:07:05;26.15;;;23.45;;
11279;SDS011;5696;50.928;6.960;2022-08-19T08:09:50;26.63;;;23.85;;
11279;SDS011;5696;50.928;6.960;2022-08-19T08:12:21;28.00;;;24.73;;
11279;SDS011;5696;50.928;6.960;2022-08-19T08:14:57;32.15;;;25.08;;
11279;SDS011;5696;50.928;6.960;2022-08-19T08:17:27;29.45;;;26.27;;
11279;SDS011;5696;50.928;6.960;2022-08-19T08:19:55;29.83;;;26.73;;
11279;SDS011;5696;50.928;6.960;2022-08-19T08:22:22;30.63;;;27.48;;
11279;SDS011;5696;50.928;6.960;2022-08-19T08:25:16;29.98;;;26.88;;
11279;SDS011;5696;50.928;6.960;2022-08-19T08:27:44;31.60;;;28.10;;
11279;SDS011;5696;50.928;6.960;2022-08-19T08:30:13;23.25;;;20.83;;
11279;SDS011;5696;50.928;6.960;2022-08-19T08:32:41;30.55;;;27.27;;
11279;SDS011;5696;50.928;6.960;2022-08-19T08:35:08;30.60;;;27.50;;
11279;SDS011;5696;50.928;6.960;2022-08-19T08:37:36;31.67;;;28.17;;
11279;SDS011;5696;50.928;6.960;2022-08-19T08:40:04;30.95;;;27.63;;
11279;SDS011;5696;50.928;6.960;2022-08-19T08:42:36;33.60;;;29.40;;
11279;SDS011;5696;50.928;6.960;2022-08-19T08:45:13;34.55;;;30.85;;
11279;SDS011;5696;50.928;6.960;2022-08-19T08:47:43;35.78;;;30.75;;
11279;SDS011;5696;50.928;6.960;2022-08-19T08:50:16;35.33;;;31.02;;
11279;SDS011;5696;50.928;6.960;2022-08-19T08:52:46;50.85;;;45.40;;
11279;SDS011;5696;50.928;6.960;2022-08-19T08:55:19;35.35;;;31.52;;
11279;SDS011;5696;50.928;6.960;2022-08-19T09:02:53;37.67;;;33.67;;
11279;SDS011;5696;50.928;6.960;2022-08-19T09:05:21;42.13;;;34.83;;
11279;SDS011;5696;50.928;6.960;2022-08-19T09:10:43;36.47;;;32.47;;
11279;SDS011;5696;50.928;6.960;2022-08-19T09:16:00;44.15;;;37.75;;
11279;SDS011;5696;50.928;6.960;2022-08-19T09:21:12;36.45;;;31.33;;
11279;SDS011;5696;50.928;6.960;2022-08-19T09:23:43;33.25;;;27.10;;
11279;SDS011;5696;50.928;6.960;2022-08-19T09:26:21;38.05;;;26.90;;
11279;SDS011;5696;50.928;6.960;2022-08-19T09:29:02;33.38;;;26.85;;
11279;SDS011;5696;50.928;6.960;2022-08-19T09:31:32;28.85;;;24.95;;
11279;SDS011;5696;50.928;6.960;2022-08-19T09:34:01;27.80;;;24.98;;
11279;SDS011;5696;50.928;6.960;2022-08-19T09:36:29;29.40;;;26.25;;
11279;SDS011;5696;50.928;6.960;2022-08-19T09:38:58;27.27;;;24.33;;
11279;SDS011;5696;50.928;6.960;2022-08-19T09:41:25;26.10;;;23.52;;
11279;SDS011;5696;50.928;6.960;2022-08-19T09:43:52;24.73;;;22.15;;
11279;SDS011;5696;50.928;6.960;2022-08-19T09:46:26;26.98;;;24.10;;
11279;SDS011;5696;50.928;6.960;2022-08-19T09:49:14;26.02;;;23.50;;
11279;SDS011;5696;50.928;6.960;2022-08-19T09:51:42;26.40;;;23.63;;
11279;SDS011;5696;50.928;6.960;2022-08-19T09:54:07;25.27;;;22.75;;
11279;SDS011;5696;50.928;6.960;2022-08-19T09:56:33;23.75;;;21.35;;
11279;SDS011;5696;50.928;6.960;2022-08-19T09:59:00;24.77;;;21.13;;
11279;SDS011;5696;50.928;6.960;2022-08-19T10:01:27;24.02;;;20.38;;
11279;SDS011;5696;50.928;6.960;2022-08-19T10:03:55;21.38;;;19.17;;
11279;SDS011;5696;50.928;6.960;2022-08-19T10:06:22;21.20;;;18.85;;
11279;SDS011;5696;50.928;6.960;2022-08-19T10:08:51;16.30;;;14.70;;
11279;SDS011;5696;50.928;6.960;2022-08-19T10:11:18;20.42;;;13.80;;
11279;SDS011;5696;50.928;6.960;2022-08-19T10:13:44;18.38;;;16.48;;
11279;SDS011;5696;50.928;6.960;2022-08-19T10:16:12;109.15;;;21.00;;
11279;SDS011;5696;50.928;6.960;2022-08-19T10:18:39;18.13;;;14.85;;
11279;SDS011;5696;50.928;6.960;2022-08-19T10:23:36;18.40;;;16.60;;
11279;SDS011;5696;50.928;6.960;2022-08-19T10:26:04;16.85;;;15.27;;
11279;SDS011;5696;50.928;6.960;2022-08-19T10:28:31;17.15;;;15.45;;
11279;SDS011;5696;50.928;6.960;2022-08-19T10:31:09;15.55;;;13.80;;
11279;SDS011;5696;50.928;6.960;2022-08-19T10:33:42;17.45;;;15.65;;
11279;SDS011;5696;50.928;6.960;2022-08-19T10:36:09;15.43;;;13.80;;
11279;SDS011;5696;50.928;6.960;2022-08-19T10:38:38;17.83;;;16.10;;
11279;SDS011;5696;50.928;6.960;2022-08-19T10:41:14;17.55;;;15.45;;
11279;SDS011;5696;50.928;6.960;2022-08-19T10:43:42;19.77;;;17.77;;
11279;SDS011;5696;50.928;6.960;2022-08-19T10:46:11;16.58;;;14.93;;
11279;SDS011;5696;50.928;6.960;2022-08-19T10:48:59;18.55;;;16.83;;
11279;SDS011;5696;50.928;6.960;2022-08-19T10:51:26;15.98;;;14.35;;
11279;SDS011;5696;50.928;6.960;2022-08-19T10:54:11;17.65;;;15.90;;
11279;SDS011;5696;50.928;6.960;2022-08-19T10:56:36;15.52;;;13.95;;
11279;SDS011;5696;50.928;6.960;2022-08-19T10:59:24;17.33;;;15.68;;
11279;SDS011;5696;50.928;6.960;2022-08-19T11:01:52;17.23;;;15.48;;
11279;SDS011;5696;50.928;6.960;2022-08-19T11:04:19;18.77;;;16.98;;
11279;SDS011;5696;50.928;6.960;2022-08-19T11:06:46;19.08;;;17.20;;
11279;SDS011;5696;50.928;6.960;2022-08-19T11:09:16;22.25;;;19.92;;
11279;SDS011;5696;50.928;6.960;2022-08-19T11:11:44;20.40;;;18.20;;
11279;SDS011;5696;50.928;6.960;2022-08-19T11:14:11;20.00;;;16.70;;
11279;SDS011;5696;50.928;6.960;2022-08-19T11:16:39;17.65;;;15.95;;
11279;SDS011;5696;50.928;6.960;2022-08-19T11:19:06;18.15;;;16.33;;
11279;SDS011;5696;50.928;6.960;2022-08-19T11:21:34;15.93;;;14.48;;
11279;SDS011;5696;50.928;6.960;2022-08-19T11:24:09;13.57;;;12.38;;
11279;SDS011;5696;50.928;6.960;2022-08-19T11:26:38;14.10;;;12.80;;
11279;SDS011;5696;50.928;6.960;2022-08-19T11:29:05;13.95;;;12.55;;
11279;SDS011;5696;50.928;6.960;2022-08-19T11:31:46;13.50;;;12.13;;
11279;SDS011;5696;50.928;6.960;2022-08-19T11:34:15;14.55;;;13.25;;
11279;SDS011;5696;50.928;6.960;2022-08-19T11:36:43;13.85;;;12.57;;
11279;SDS011;5696;50.928;6.960;2022-08-19T11:39:11;14.48;;;13.02;;
11279;SDS011;5696;50.928;6.960;2022-08-19T11:41:38;16.45;;;12.70;;
11279;SDS011;5696;50.928;6.960;2022-08-19T11:44:04;12.38;;;11.38;;
11279;SDS011;5696;50.928;6.960;2022-08-19T11:46:31;12.88;;;11.57;;
11279;SDS011;5696;50.928;6.960;2022-08-19T11:48:57;13.07;;;11.75;;
11279;SDS011;5696;50.928;6.960;2022-08-19T11:51:25;12.88;;;11.57;;
11279;SDS011;5696;50.928;6.960;2022-08-19T11:54:03;14.02;;;12.55;;
11279;SDS011;5696;50.928;6.960;2022-08-19T11:56:30;13.90;;;12.48;;
11279;SDS011;5696;50.928;6.960;2022-08-19T11:58:56;10.52;;;9.65;;
11279;SDS011;5696;50.928;6.960;2022-08-19T12:01:23;32.10;;;28.75;;
11279;SDS011;5696;50.928;6.960;2022-08-19T12:03:51;11.88;;;10.77;;
11279;SDS011;5696;50.928;6.960;2022-08-19T12:06:19;12.15;;;10.82;;
11279;SDS011;5696;50.928;6.960;2022-08-19T12:08:53;14.50;;;11.60;;
11279;SDS011;5696;50.928;6.960;2022-08-19T12:11:23;11.88;;;10.68;;
11279;SDS011;5696;50.928;6.960;2022-08-19T12:13:49;12.07;;;11.05;;
11279;SDS011;5696;50.928;6.960;2022-08-19T12:16:25;11.00;;;9.80;;
11279;SDS011;5696;50.928;6.960;2022-08-19T12:18:53;15.38;;;13.90;;
11279;SDS011;5696;50.928;6.960;2022-08-19T12:21:21;11.45;;;10.45;;
11279;SDS011;5696;50.928;6.960;2022-08-19T12:23:53;13.38;;;10.35;;
11279;SDS011;5696;50.928;6.960;2022-08-19T12:26:19;10.30;;;9.30;;
11279;SDS011;5696;50.928;6.960;2022-08-19T12:28:45;9.90;;;8.90;;
11279;SDS011;5696;50.928;6.960;2022-08-19T12:31:13;11.00;;;9.85;;
11279;SDS011;5696;50.928;6.960;2022-08-19T12:33:39;11.07;;;9.98;;
11279;SDS011;5696;50.928;6.960;2022-08-19T12:36:07;9.45;;;8.60;;
11279;SDS011;5696;50.928;6.960;2022-08-19T12:38:35;10.98;;;9.90;;
11279;SDS011;5696;50.928;6.960;2022-08-19T12:41:02;8.98;;;8.05;;
11279;SDS011;5696;50.928;6.960;2022-08-19T12:43:32;9.32;;;8.40;;
11279;SDS011;5696;50.928;6.960;2022-08-19T12:46:01;8.68;;;7.88;;
11279;SDS011;5696;50.928;6.960;2022-08-19T12:48:29;8.68;;;7.97;;
11279;SDS011;5696;50.928;6.960;2022-08-19T12:50:55;13.27;;;12.02;;
11279;SDS011;5696;50.928;6.960;2022-08-19T12:53:21;11.13;;;9.35;;
11279;SDS011;5696;50.928;6.960;2022-08-19T12:55:47;10.68;;;9.73;;
11279;SDS011;5696;50.928;6.960;2022-08-19T12:58:13;9.25;;;8.40;;
11279;SDS011;5696;50.928;6.960;2022-08-19T13:00:39;9.73;;;8.65;;
11279;SDS011;5696;50.928;6.960;2022-08-19T13:03:05;9.27;;;8.38;;
11279;SDS011;5696;50.928;6.960;2022-08-19T13:05:31;9.05;;;8.25;;
11279;SDS011;5696;50.928;6.960;2022-08-19T13:08:01;9.77;;;8.77;;
11279;SDS011;5696;50.928;6.960;2022-08-19T13:10:31;10.57;;;9.57;;
11279;SDS011;5696;50.928;6.960;2022-08-19T13:13:01;10.85;;;9.75;;
11279;SDS011;5696;50.928;6.960;2022-08-19T13:15:32;10.73;;;9.70;;
11279;SDS011;5696;50.928;6.960;2022-08-19T13:17:58;11.10;;;8.95;;
11279;SDS011;5696;50.928;6.960;2022-08-19T13:20:24;9.48;;;8.50;;
11279;SDS011;5696;50.928;6.960;2022-08-19T13:22:51;9.10;;;8.20;;
11279;SDS011;5696;50.928;6.960;2022-08-19T13:25:17;8.38;;;7.22;;
11279;SDS011;5696;50.928;6.960;2022-08-19T13:27:45;8.23;;;7.53;;
11279;SDS011;5696;50.928;6.960;2022-08-19T13:30:12;8.32;;;7.65;;
11279;SDS011;5696;50.928;6.960;2022-08-19T13:32:58;8.07;;;7.38;;
11279;SDS011;5696;50.928;6.960;2022-08-19T13:35:36;9.55;;;7.63;;
11279;SDS011;5696;50.928;6.960;2022-08-19T13:38:03;7.65;;;6.88;;
11279;SDS011;5696;50.928;6.960;2022-08-19T13:40:30;11.38;;;8.02;;
11279;SDS011;5696;50.928;6.960;2022-08-19T13:42:58;8.73;;;7.90;;
11279;SDS011;5696;50.928;6.960;2022-08-19T13:45:26;7.50;;;6.70;;
11279;SDS011;5696;50.928;6.960;2022-08-19T13:47:53;6.13;;;5.63;;
11279;SDS011;5696;50.928;6.960;2022-08-19T13:50:22;7.70;;;6.72;;
11279;SDS011;5696;50.928;6.960;2022-08-19T13:52:50;7.45;;;6.75;;
11279;SDS011;5696;50.928;6.960;2022-08-19T13:55:17;9.95;;;7.93;;
11279;SDS011;5696;50.928;6.960;2022-08-19T13:57:42;9.70;;;7.05;;
11279;SDS011;5696;50.928;6.960;2022-08-19T14:00:09;7.85;;;7.15;;
11279;SDS011;5696;50.928;6.960;2022-08-19T14:02:43;8.07;;;7.38;;
11279;SDS011;5696;50.928;6.960;2022-08-19T14:05:11;9.05;;;7.30;;
11279;SDS011;5696;50.928;6.960;2022-08-19T14:07:38;10.02;;;7.60;;
11279;SDS011;5696;50.928;6.960;2022-08-19T14:10:05;11.57;;;10.40;;
11279;SDS011;5696;50.928;6.960;2022-08-19T14:12:32;7.93;;;7.13;;
11279;SDS011;5696;50.928;6.960;2022-08-19T14:14:58;7.32;;;6.45;;
11279;SDS011;5696;50.928;6.960;2022-08-19T14:17:24;11.20;;;7.22;;
11279;SDS011;5696;50.928;6.960;2022-08-19T14:19:56;7.05;;;6.30;;
11279;SDS011;5696;50.928;6.960;2022-08-19T14:22:22;11.63;;;6.90;;
11279;SDS011;5696;50.928;6.960;2022-08-19T14:24:48;7.88;;;6.97;;
11279;SDS011;5696;50.928;6.960;2022-08-19T14:27:15;7.65;;;7.03;;
11279;SDS011;5696;50.928;6.960;2022-08-19T14:29:41;9.18;;;7.35;;
11279;SDS011;5696;50.928;6.960;2022-08-19T14:32:06;8.50;;;7.15;;
11279;SDS011;5696;50.928;6.960;2022-08-19T14:34:32;11.07;;;8.00;;
11279;SDS011;5696;50.928;6.960;2022-08-19T14:37:02;7.65;;;6.88;;
11279;SDS011;5696;50.928;6.960;2022-08-19T14:39:28;8.00;;;6.63;;
11279;SDS011;5696;50.928;6.960;2022-08-19T14:41:53;7.13;;;6.40;;
11279;SDS011;5696;50.928;6.960;2022-08-19T14:44:19;12.18;;;6.30;;
11279;SDS011;5696;50.928;6.960;2022-08-19T14:46:45;6.72;;;5.93;;
11279;SDS011;5696;50.928;6.960;2022-08-19T14:49:20;7.10;;;6.40;;
11279;SDS011;5696;50.928;6.960;2022-08-19T14:51:47;7.80;;;6.85;;
11279;SDS011;5696;50.928;6.960;2022-08-19T14:54:12;6.65;;;6.00;;
11279;SDS011;5696;50.928;6.960;2022-08-19T14:56:39;6.75;;;6.20;;
11279;SDS011;5696;50.928;6.960;2022-08-19T14:59:05;7.93;;;5.60;;
11279;SDS011;5696;50.928;6.960;2022-08-19T15:01:31;6.60;;;5.78;;
11279;SDS011;5696;50.928;6.960;2022-08-19T15:03:56;7.65;;;6.07;;
11279;SDS011;5696;50.928;6.960;2022-08-19T15:06:25;5.63;;;4.88;;
11279;SDS011;5696;50.928;6.960;2022-08-19T15:08:52;8.60;;;5.32;;
11279;SDS011;5696;50.928;6.960;2022-08-19T15:11:19;8.23;;;5.07;;
11279;SDS011;5696;50.928;6.960;2022-08-19T15:13:48;5.82;;;4.70;;
11279;SDS011;5696;50.928;6.960;2022-08-19T15:16:15;5.18;;;4.35;;
11279;SDS011;5696;50.928;6.960;2022-08-19T15:18:42;4.63;;;4.10;;
11279;SDS011;5696;50.928;6.960;2022-08-19T15:21:12;4.90;;;4.50;;
11279;SDS011;5696;50.928;6.960;2022-08-19T15:23:42;5.22;;;4.47;;
11279;SDS011;5696;50.928;6.960;2022-08-19T15:26:09;4.70;;;4.25;;
11279;SDS011;5696;50.928;6.960;2022-08-19T15:28:35;5.70;;;4.13;;
11279;SDS011;5696;50.928;6.960;2022-08-19T15:31:02;4.95;;;4.45;;
11279;SDS011;5696;50.928;6.960;2022-08-19T15:33:30;5.10;;;4.60;;
11279;SDS011;5696;50.928;6.960;2022-08-19T15:35:57;5.70;;;4.05;;
11279;SDS011;5696;50.928;6.960;2022-08-19T15:38:23;6.43;;;4.22;;
11279;SDS011;5696;50.928;6.960;2022-08-19T15:40:50;4.55;;;3.90;;
11279;SDS011;5696;50.928;6.960;2022-08-19T15:43:16;4.88;;;3.47;;
11279;SDS011;5696;50.928;6.960;2022-08-19T15:45:44;3.92;;;3.40;;
11279;SDS011;5696;50.928;6.960;2022-08-19T15:48:10;4.13;;;3.83;;
11279;SDS011;5696;50.928;6.960;2022-08-19T15:50:35;3.83;;;3.50;;
11279;SDS011;5696;50.928;6.960;2022-08-19T15:53:05;3.67;;;3.38;;
11279;SDS011;5696;50.928;6.960;2022-08-19T15:55:35;10.73;;;5.72;;
11279;SDS011;5696;50.928;6.960;2022-08-19T15:58:07;4.90;;;3.47;;
11279;SDS011;5696;50.928;6.960;2022-08-19T16:00:53;4.82;;;4.35;;
11279;SDS011;5696;50.928;6.960;2022-08-19T16:03:37;5.30;;;4.05;;
11279;SDS011;5696;50.928;6.960;2022-08-19T16:06:29;6.38;;;3.90;;
11279;SDS011;5696;50.928;6.960;2022-08-19T16:08:56;4.50;;;3.92;;
11279;SDS011;5696;50.928;6.960;2022-08-19T16:11:25;4.43;;;4.03;;
11279;SDS011;5696;50.928;6.960;2022-08-19T16:13:54;7.32;;;3.85;;
11279;SDS011;5696;50.928;6.960;2022-08-19T16:16:22;5.20;;;3.95;;
11279;SDS011;5696;50.928;6.960;2022-08-19T16:18:52;4.45;;;3.55;;
11279;SDS011;5696;50.928;6.960;2022-08-19T16:21:20;5.95;;;3.72;;
11279;SDS011;5696;50.928;6.960;2022-08-19T16:23:47;11.45;;;7.68;;
11279;SDS011;5696;50.928;6.960;2022-08-19T16:26:14;6.35;;;4.07;;
11279;SDS011;5696;50.928;6.960;2022-08-19T16:28:41;5.65;;;4.80;;
11279;SDS011;5696;50.928;6.960;2022-08-19T16:31:07;9.15;;;4.47;;
11279;SDS011;5696;50.928;6.960;2022-08-19T16:33:34;5.28;;;3.90;;
11279;SDS011;5696;50.928;6.960;2022-08-19T16:35:59;3.47;;;3.15;;
11279;SDS011;5696;50.928;6.960;2022-08-19T16:38:25;4.50;;;3.90;;
11279;SDS011;5696;50.928;6.960;2022-08-19T16:40:51;4.45;;;3.42;;
11279;SDS011;5696;50.928;6.960;2022-08-19T16:43:21;4.60;;;3.00;;
11279;SDS011;5696;50.928;6.960;2022-08-19T16:45:49;7.28;;;3.60;;
11279;SDS011;5696;50.928;6.960;2022-08-19T16:48:19;3.35;;;2.70;;
11279;SDS011;5696;50.928;6.960;2022-08-19T16:50:46;6.10;;;2.90;;
11279;SDS011;5696;50.928;6.960;2022-08-19T16:53:22;4.47;;;2.95;;
11279;SDS011;5696;50.928;6.960;2022-08-19T16:55:55;4.45;;;2.65;;
11279;SDS011;5696;50.928;6.960;2022-08-19T16:58:23;4.93;;;2.78;;
11279;SDS011;5696;50.928;6.960;2022-08-19T17:00:52;4.32;;;2.58;;
11279;SDS011;5696;50.928;6.960;2022-08-19T17:03:18;4.15;;;2.88;;
11279;SDS011;5696;50.928;6.960;2022-08-19T17:05:48;3.92;;;2.47;;
11279;SDS011;5696;50.928;6.960;2022-08-19T17:08:16;4.80;;;2.75;;
11279;SDS011;5696;50.928;6.960;2022-08-19T17:10:47;3.70;;;2.85;;
11279;SDS011;5696;50.928;6.960;2022-08-19T17:13:13;3.00;;;2.50;;
11279;SDS011;5696;50.928;6.960;2022-08-19T17:15:40;4.57;;;2.47;;
11279;SDS011;5696;50.928;6.960;2022-08-19T17:18:07;2.80;;;2.60;;
11279;SDS011;5696;50.928;6.960;2022-08-19T17:20:35;4.13;;;2.40;;
11279;SDS011;5696;50.928;6.960;2022-08-19T17:23:01;2.70;;;2.30;;
11279;SDS011;5696;50.928;6.960;2022-08-19T17:25:28;3.42;;;2.88;;
11279;SDS011;5696;50.928;6.960;2022-08-19T17:27:55;4.95;;;2.65;;
11279;SDS011;5696;50.928;6.960;2022-08-19T17:30:22;3.83;;;2.83;;
11279;SDS011;5696;50.928;6.960;2022-08-19T17:32:48;2.95;;;2.63;;
11279;SDS011;5696;50.928;6.960;2022-08-19T17:35:16;4.72;;;2.90;;
11279;SDS011;5696;50.928;6.960;2022-08-19T17:37:45;4.53;;;2.55;;
11279;SDS011;5696;50.928;6.960;2022-08-19T17:40:12;4.15;;;2.70;;
11279;SDS011;5696;50.928;6.960;2022-08-19T17:42:38;3.58;;;2.80;;
11279;SDS011;5696;50.928;6.960;2022-08-19T17:45:05;5.85;;;3.35;;
11279;SDS011;5696;50.928;6.960;2022-08-19T17:47:32;3.60;;;3.10;;
11279;SDS011;5696;50.928;6.960;2022-08-19T17:49:59;6.68;;;3.35;;
11279;SDS011;5696;50.928;6.960;2022-08-19T17:52:24;3.45;;;3.13;;
11279;SDS011;5696;50.928;6.960;2022-08-19T17:54:50;5.63;;;3.92;;
11279;SDS011;5696;50.928;6.960;2022-08-19T17:57:16;7.93;;;4.10;;
11279;SDS011;5696;50.928;6.960;2022-08-19T17:59:42;3.67;;;3.30;;
11279;SDS011;5696;50.928;6.960;2022-08-19T18:02:08;3.75;;;3.42;;
11279;SDS011;5696;50.928;6.960;2022-08-19T18:04:36;5.43;;;3.63;;
11279;SDS011;5696;50.928;6.960;2022-08-19T18:07:02;6.72;;;3.38;;
11279;SDS011;5696;50.928;6.960;2022-08-19T18:09:29;4.25;;;3.20;;
11279;SDS011;5696;50.928;6.960;2022-08-19T18:11:57;5.97;;;3.55;;
11279;SDS011;5696;50.928;6.960;2022-08-19T18:14:24;6.35;;;2.95;;
11279;SDS011;5696;50.928;6.960;2022-08-19T18:16:53;5.22;;;3.47;;
11279;SDS011;5696;50.928;6.960;2022-08-19T18:19:22;4.03;;;3.00;;
11279;SDS011;5696;50.928;6.960;2022-08-19T18:21:48;3.95;;;3.50;;
11279;SDS011;5696;50.928;6.960;2022-08-19T18:24:14;5.22;;;3.35;;
11279;SDS011;5696;50.928;6.960;2022-08-19T18:26:40;4.25;;;3.50;;
11279;SDS011;5696;50.928;6.960;2022-08-19T18:29:06;5.10;;;3.60;;
11279;SDS011;5696;50.928;6.960;2022-08-19T18:31:33;4.68;;;3.38;;
11279;SDS011;5696;50.928;6.960;2022-08-19T18:34:00;4.20;;;3.72;;
11279;SDS011;5696;50.928;6.960;2022-08-19T18:36:25;5.55;;;3.80;;
11279;SDS011;5696;50.928;6.960;2022-08-19T18:38:52;5.97;;;3.60;;
11279;SDS011;5696;50.928;6.960;2022-08-19T18:41:37;3.22;;;3.03;;
11279;SDS011;5696;50.928;6.960;2022-08-19T18:44:22;4.15;;;3.45;;
11279;SDS011;5696;50.928;6.960;2022-08-19T18:47:06;7.18;;;3.60;;
11279;SDS011;5696;50.928;6.960;2022-08-19T18:49:51;14.35;;;10.57;;
11279;SDS011;5696;50.928;6.960;2022-08-19T18:52:17;5.10;;;3.65;;
11279;SDS011;5696;50.928;6.960;2022-08-19T18:54:43;4.72;;;3.88;;
11279;SDS011;5696;50.928;6.960;2022-08-19T18:57:15;5.07;;;3.67;;
11279;SDS011;5696;50.928;6.960;2022-08-19T18:59:48;6.55;;;5.00;;
11279;SDS011;5696;50.928;6.960;2022-08-19T19:02:15;6.68;;;4.05;;
11279;SDS011;5696;50.928;6.960;2022-08-19T19:04:42;4.68;;;3.85;;
11279;SDS011;5696;50.928;6.960;2022-08-19T19:07:09;5.93;;;3.88;;
11279;SDS011;5696;50.928;6.960;2022-08-19T19:09:38;6.32;;;3.88;;
11279;SDS011;5696;50.928;6.960;2022-08-19T19:12:05;4.07;;;3.58;;
11279;SDS011;5696;50.928;6.960;2022-08-19T19:14:36;6.30;;;3.55;;
11279;SDS011;5696;50.928;6.960;2022-08-19T19:17:07;7.63;;;3.60;;
11279;SDS011;5696;50.928;6.960;2022-08-19T19:19:35;4.20;;;3.13;;
11279;SDS011;5696;50.928;6.960;2022-08-19T19:22:07;4.97;;;3.35;;
11279;SDS011;5696;50.928;6.960;2022-08-19T19:24:35;3.88;;;3.58;;
11279;SDS011;5696;50.928;6.960;2022-08-19T19:27:03;4.65;;;3.50;;
11279;SDS011;5696;50.928;6.960;2022-08-19T19:29:32;5.32;;;3.88;;
11279;SDS011;5696;50.928;6.960;2022-08-19T19:32:00;3.90;;;2.85;;
11279;SDS011;5696;50.928;6.960;2022-08-19T19:34:27;3.75;;;2.70;;
11279;SDS011;5696;50.928;6.960;2022-08-19T19:36:52;4.38;;;2.78;;
11279;SDS011;5696;50.928;6.960;2022-08-19T19:39:18;3.85;;;2.20;;
11279;SDS011;5696;50.928;6.960;2022-08-19T19:41:44;2.60;;;2.40;;
11279;SDS011;5696;50.928;6.960;2022-08-19T19:44:11;3.15;;;2.50;;
11279;SDS011;5696;50.928;6.960;2022-08-19T19:46:37;3.85;;;3.55;;
11279;SDS011;5696;50.928;6.960;2022-08-19T19:49:07;3.03;;;2.50;;
11279;SDS011;5696;50.928;6.960;2022-08-19T19:51:33;3.50;;;2.97;;
11279;SDS011;5696;50.928;6.960;2022-08-19T19:54:00;3.03;;;2.70;;
11279;SDS011;5696;50.928;6.960;2022-08-19T19:56:26;5.28;;;2.83;;
11279;SDS011;5696;50.928;6.960;2022-08-19T19:58:51;13.48;;;12.30;;
11279;SDS011;5696;50.928;6.960;2022-08-19T20:01:18;7.80;;;7.10;;
11279;SDS011;5696;50.928;6.960;2022-08-19T20:03:45;4.55;;;3.17;;
11279;SDS011;5696;50.928;6.960;2022-08-19T20:06:12;3.58;;;3.28;;
11279;SDS011;5696;50.928;6.960;2022-08-19T20:08:39;8.43;;;7.57;;
11279;SDS011;5696;50.928;6.960;2022-08-19T20:11:28;4.00;;;3.35;;
11279;SDS011;5696;50.928;6.960;2022-08-19T20:13:58;21.05;;;19.00;;
11279;SDS011;5696;50.928;6.960;2022-08-19T20:16:28;3.60;;;3.30;;
11279;SDS011;5696;50.928;6.960;2022-08-19T20:18:55;5.03;;;3.20;;